Time;durP1;ratioP1;P1;durP2;ratioP2;P2;SDS_P1;SDS_P2;PMS_P1;PMS_P2;Temp;Humidity;BMP_temperature;BMP_pressure;BME280_temperature;BME280_humidity;BME280_pressure;Samples;Min_cycle;Max_cycle;Signal;HPM_P1;HPM_P2
2023/08/19 00:01:45;;;;;;;16.98;15.30;;;24.60;99.90;;;;;;5095575;28;20399;-48
2023/08/19 00:04:11;;;;;;;17.60;16.00;;;24.70;99.90;;;;;;5114029;28;20030;-49
2023/08/19 00:06:40;;;;;;;17.48;15.30;;;24.60;99.90;;;;;;5114458;28;20046;-48
2023/08/19 00:09:08;;;;;;;15.48;13.77;;;;;;;;;;5095148;28;20417;-48
2023/08/19 00:11:38;;;;;;;16.30;14.77;;;24.50;99.90;;;;;;5114193;28;20062;-48
2023/08/19 00:14:05;;;;;;;17.10;14.52;;;24.50;99.90;;;;;;5114115;28;20027;-48
2023/08/19 00:16:35;;;;;;;18.25;16.33;;;;;;;;;;5095318;28;20115;-48
2023/08/19 00:19:01;;;;;;;20.05;15.90;;;24.50;99.90;;;;;;5114188;28;20027;-48
2023/08/19 00:21:27;;;;;;;17.38;15.55;;;24.40;99.90;;;;;;5114547;28;20024;-48
2023/08/19 00:23:53;;;;;;;17.45;15.60;;;24.40;99.90;;;;;;5114242;28;20035;-48
2023/08/19 00:26:19;;;;;;;16.63;14.93;;;24.40;99.90;;;;;;5114303;28;20026;-49
2023/08/19 00:28:45;;;;;;;17.73;16.00;;;24.20;99.90;;;;;;5113860;28;20382;-48
2023/08/19 00:31:10;;;;;;;18.30;16.40;;;24.20;99.90;;;;;;5094820;28;20043;-48
2023/08/19 00:33:36;;;;;;;20.15;17.05;;;24.20;99.90;;;;;;5113798;28;20517;-48
2023/08/19 00:36:03;;;;;;;17.52;15.75;;;24.20;99.90;;;;;;5114036;28;20040;-48
2023/08/19 00:38:29;;;;;;;17.95;16.25;;;24.30;99.90;;;;;;5113167;28;20043;-48
2023/08/19 00:40:55;;;;;;;17.38;15.75;;;24.40;99.90;;;;;;5111999;28;20033;-48
2023/08/19 00:43:21;;;;;;;17.98;16.17;;;24.30;99.90;;;;;;5113519;28;20055;-48
2023/08/19 00:45:47;;;;;;;18.48;16.65;;;24.30;99.90;;;;;;5113637;28;20051;-48
2023/08/19 00:48:15;;;;;;;18.63;16.75;;;24.20;99.90;;;;;;5113669;28;20055;-48
2023/08/19 00:50:41;;;;;;;17.33;15.73;;;24.20;99.90;;;;;;5113922;28;20035;-48
2023/08/19 00:53:08;;;;;;;19.38;17.52;;;24.20;99.90;;;;;;5113526;28;20023;-49
2023/08/19 00:55:34;;;;;;;19.88;17.80;;;;;;;;;;5113535;28;20108;-48
2023/08/19 00:58:03;;;;;;;19.35;17.45;;;;;;;;;;5113265;28;20067;-48
2023/08/19 01:00:32;;;;;;;21.48;19.00;;;;;;;;;;5113420;28;20031;-48
2023/08/19 01:02:59;;;;;;;19.30;17.33;;;;;;;;;;5113956;28;20040;-48
2023/08/19 01:05:49;;;;;;;29.08;17.73;;;24.20;99.90;;;;;;5113644;28;20023;-48
2023/08/19 01:08:22;;;;;;;20.35;18.40;;;24.20;99.90;;;;;;5112821;28;20471;-48
2023/08/19 01:10:57;;;;;;;20.73;18.30;;;;;;;;;;5113572;28;20494;-48
2023/08/19 01:13:27;;;;;;;21.02;18.70;;;;;;;;;;5113634;28;20038;-48
2023/08/19 01:15:59;;;;;;;21.85;19.65;;;24.10;99.90;;;;;;5113174;28;20034;-48
2023/08/19 01:18:25;;;;;;;;;;;;;;;;;;5113538;28;20173;-48
2023/08/19 01:20:52;;;;;;;19.85;17.90;;;23.90;99.90;;;;;;5111593;28;19954;-48
2023/08/19 01:23:32;;;;;;;20.85;18.70;;;24.00;99.90;;;;;;5113565;28;20023;-48
2023/08/19 01:25:59;;;;;;;21.58;19.55;;;24.00;99.90;;;;;;5113286;28;20421;-48
2023/08/19 01:28:25;;;;;;;22.73;20.25;;;24.00;99.90;;;;;;5094616;28;20047;-48
2023/08/19 01:30:50;;;;;;;20.83;18.63;;;24.00;99.90;;;;;;5094616;28;20043;-48
2023/08/19 01:33:17;;;;;;;23.30;19.45;;;23.90;99.90;;;;;;5113051;28;20024;-48
2023/08/19 01:35:54;;;;;;;22.15;20.05;;;23.90;99.90;;;;;;5113271;28;20059;-48
2023/08/19 01:38:34;;;;;;;22.08;19.70;;;23.90;99.90;;;;;;5112919;28;20075;-48
2023/08/19 01:41:02;;;;;;;22.20;20.05;;;24.00;99.90;;;;;;5112997;28;20420;-48
2023/08/19 01:43:28;;;;;;;22.00;19.70;;;24.00;99.90;;;;;;5112833;28;20498;-48
2023/08/19 01:45:54;;;;;;;22.23;20.00;;;24.00;99.90;;;;;;5113443;28;20047;-48
2023/08/19 01:48:20;;;;;;;21.80;19.55;;;23.80;99.90;;;;;;5113052;28;20031;-48
2023/08/19 01:50:45;;;;;;;21.33;19.33;;;23.90;99.90;;;;;;5115129;28;20471;-49
2023/08/19 01:53:11;;;;;;;22.77;20.52;;;23.80;99.90;;;;;;5097830;28;20059;-48
2023/08/19 01:55:37;;;;;;;22.80;20.55;;;;;;;;;;5117035;28;20063;-48
2023/08/19 01:58:03;;;;;;;23.38;20.77;;;;;;;;;;5097841;28;20070;-48
2023/08/19 02:00:29;;;;;;;23.95;21.25;;;23.70;99.90;;;;;;5097969;28;20124;-48
2023/08/19 02:02:55;;;;;;;22.10;20.05;;;23.70;99.90;;;;;;5097755;28;20069;-48
2023/08/19 02:05:21;;;;;;;22.02;19.85;;;23.70;99.90;;;;;;5116579;28;20024;-48
2023/08/19 02:07:46;;;;;;;22.40;20.08;;;23.70;99.90;;;;;;5097516;28;20043;-48
2023/08/19 02:10:12;;;;;;;22.95;20.52;;;;;;;;;;5097453;28;20050;-48
2023/08/19 02:12:38;;;;;;;22.92;20.60;;;23.60;99.90;;;;;;5116782;28;20104;-48
2023/08/19 02:15:05;;;;;;;21.33;19.33;;;23.60;99.90;;;;;;5116291;28;20107;-48
2023/08/19 02:17:30;;;;;;;23.38;21.00;;;23.50;99.90;;;;;;5116093;28;20040;-48
2023/08/19 02:19:56;;;;;;;22.80;20.40;;;23.50;99.90;;;;;;5097389;28;20042;-48
2023/08/19 02:22:22;;;;;;;24.50;21.92;;;23.50;99.90;;;;;;5116237;28;20023;-48
2023/08/19 02:24:48;;;;;;;23.23;20.90;;;23.50;99.90;;;;;;5097176;28;20036;-48
2023/08/19 02:27:13;;;;;;;21.98;19.88;;;23.40;99.90;;;;;;5116549;28;20035;-48
2023/08/19 02:29:39;;;;;;;24.30;21.85;;;23.50;99.90;;;;;;5115991;28;20035;-48
2023/08/19 02:32:05;;;;;;;21.67;19.67;;;23.50;99.90;;;;;;5116462;28;20028;-48
2023/08/19 02:34:31;;;;;;;22.98;20.35;;;23.50;99.90;;;;;;5080169;28;20047;-48
2023/08/19 02:36:57;;;;;;;23.85;21.33;;;23.40;99.90;;;;;;5116024;28;20036;-55
2023/08/19 02:39:23;;;;;;;22.80;20.60;;;23.40;99.90;;;;;;5116170;28;20035;-48
2023/08/19 02:41:49;;;;;;;22.08;19.73;;;;;;;;;;5097004;28;20486;-48
2023/08/19 02:44:15;;;;;;;21.45;19.35;;;23.30;99.90;;;;;;5096861;28;20340;-49
2023/08/19 02:46:41;;;;;;;21.05;18.92;;;;;;;;;;5115913;27;20024;-49
2023/08/19 02:49:06;;;;;;;23.45;21.17;;;23.30;99.90;;;;;;5097072;28;20036;-49
2023/08/19 02:51:32;;;;;;;19.70;17.60;;;;;;;;;;5116202;28;20478;-49
2023/08/19 02:53:59;;;;;;;21.48;19.40;;;23.30;99.90;;;;;;5115940;28;20073;-48
2023/08/19 02:56:25;;;;;;;21.63;19.55;;;23.20;99.90;;;;;;5079614;28;20448;-48
2023/08/19 02:58:50;;;;;;;22.30;20.00;;;23.20;99.90;;;;;;5115778;28;20031;-49
2023/08/19 03:01:16;;;;;;;21.02;18.92;;;23.20;99.90;;;;;;5115620;28;20424;-48
2023/08/19 03:03:44;;;;;;;24.05;21.65;;;23.20;99.90;;;;;;5115263;28;20046;-48
2023/08/19 03:06:10;;;;;;;23.58;21.08;;;23.20;99.90;;;;;;5116033;28;20024;-47
2023/08/19 03:08:36;;;;;;;22.08;19.73;;;23.10;99.90;;;;;;5096542;28;20693;-47
2023/08/19 03:11:02;;;;;;;23.65;21.45;;;23.10;99.90;;;;;;5096472;28;20097;-47
2023/08/19 03:13:27;;;;;;;23.67;21.17;;;23.10;99.90;;;;;;5096436;28;20035;-48
2023/08/19 03:15:59;;;;;;;22.45;20.33;;;23.00;99.90;;;;;;5096230;28;20035;-48
2023/08/19 03:18:25;;;;;;;;;;;23.10;99.90;;;;;;5115594;28;20102;-48
2023/08/19 03:20:58;;;;;;;23.40;21.08;;;23.00;99.90;;;;;;5108007;28;20363;-48
2023/08/19 03:23:26;;;;;;;23.70;21.27;;;23.00;99.90;;;;;;5079070;28;20036;-49
2023/08/19 03:25:52;;;;;;;24.45;21.75;;;;;;;;;;5115514;28;20036;-49
2023/08/19 03:28:18;;;;;;;24.05;21.52;;;22.90;99.90;;;;;;5115037;28;20472;-49
2023/08/19 03:30:43;;;;;;;23.63;21.17;;;22.90;99.90;;;;;;5079130;28;20123;-49
2023/08/19 03:33:09;;;;;;;20.80;18.80;;;22.90;99.90;;;;;;5114790;28;20156;-49
2023/08/19 03:35:35;;;;;;;21.98;19.73;;;23.00;99.90;;;;;;5114684;28;20076;-50
2023/08/19 03:38:02;;;;;;;23.33;20.80;;;;;;;;;;5095854;28;20059;-48
2023/08/19 03:40:28;;;;;;;23.88;21.55;;;23.00;99.90;;;;;;5114943;28;20028;-48
2023/08/19 03:42:53;;;;;;;24.27;21.88;;;23.00;99.90;;;;;;5114532;28;20386;-48
2023/08/19 03:45:19;;;;;;;23.73;21.40;;;23.00;99.90;;;;;;5114497;28;20499;-48
2023/08/19 03:47:45;;;;;;;24.38;21.48;;;23.00;99.90;;;;;;5114727;28;20023;-48
2023/08/19 03:50:11;;;;;;;25.15;22.67;;;23.00;99.90;;;;;;5114937;28;20463;-49
2023/08/19 03:52:36;;;;;;;24.58;22.17;;;23.00;99.90;;;;;;5095671;28;20126;-49
2023/08/19 03:55:02;;;;;;;27.48;23.02;;;22.90;99.90;;;;;;5114376;28;20388;-48
2023/08/19 03:57:28;;;;;;;25.83;21.27;;;23.00;99.90;;;;;;5114648;28;20118;-48
2023/08/19 03:59:54;;;;;;;25.50;22.10;;;23.00;99.90;;;;;;5114378;28;20387;-48
2023/08/19 04:02:20;;;;;;;26.15;23.40;;;23.00;99.90;;;;;;5098139;28;20127;-48
2023/08/19 04:05:02;;;;;;;25.48;22.98;;;22.90;99.90;;;;;;5094032;28;20035;-48
2023/08/19 04:07:28;;;;;;;25.95;23.33;;;22.90;99.90;;;;;;5095322;28;20063;-49
2023/08/19 04:09:55;;;;;;;26.45;23.75;;;;;;;;;;5094176;28;20042;-48
2023/08/19 04:12:25;;;;;;;26.20;23.42;;;22.90;99.90;;;;;;5112608;28;20097;-49
2023/08/19 04:14:51;;;;;;;26.52;23.83;;;22.80;99.90;;;;;;5112817;28;20024;-49
2023/08/19 04:17:18;;;;;;;24.70;22.17;;;22.80;99.90;;;;;;5113367;28;20043;-49
2023/08/19 04:19:44;;;;;;;23.67;20.85;;;22.80;99.90;;;;;;5113668;28;20382;-48
2023/08/19 04:22:15;;;;;;;24.92;22.35;;;22.80;99.90;;;;;;5114550;28;20477;-49
2023/08/19 04:24:41;;;;;;;26.98;24.08;;;22.80;99.90;;;;;;5114419;28;20103;-48
2023/08/19 04:27:07;;;;;;;28.13;23.80;;;22.90;99.90;;;;;;5113917;28;20446;-49
2023/08/19 04:29:33;;;;;;;26.10;23.48;;;22.90;99.90;;;;;;5114189;28;20489;-49
2023/08/19 04:32:02;;;;;;;24.63;22.15;;;22.90;99.90;;;;;;5113958;28;20023;-49
2023/08/19 04:34:29;;;;;;;24.83;22.27;;;23.00;99.90;;;;;;5113795;28;20023;-48
2023/08/19 04:36:55;;;;;;;24.48;21.95;;;23.10;99.90;;;;;;5094942;28;20036;-49
2023/08/19 04:39:22;;;;;;;24.52;22.13;;;23.10;99.90;;;;;;5094816;28;20038;-49
2023/08/19 04:41:48;;;;;;;22.92;20.50;;;23.10;99.90;;;;;;5095712;28;20035;-49
2023/08/19 04:44:14;;;;;;;25.77;23.15;;;23.10;99.90;;;;;;5090936;28;20043;-48
2023/08/19 04:46:40;;;;;;;24.35;21.75;;;23.10;99.90;;;;;;5093272;28;20494;-48
2023/08/19 04:49:06;;;;;;;23.30;20.85;;;23.10;99.90;;;;;;5093674;28;20028;-48
2023/08/19 04:51:33;;;;;;;24.13;21.55;;;23.10;99.90;;;;;;5095595;28;20490;-49
2023/08/19 04:53:59;;;;;;;25.92;23.25;;;23.10;99.90;;;;;;5099261;28;20032;-49
2023/08/19 04:56:25;;;;;;;23.02;20.85;;;23.20;99.90;;;;;;5093595;28;20051;-49
2023/08/19 04:58:50;;;;;;;21.45;19.40;;;23.10;99.90;;;;;;5093314;28;20078;-48
2023/08/19 05:01:17;;;;;;;23.75;21.45;;;23.20;99.90;;;;;;5092980;28;20024;-49
2023/08/19 05:03:43;;;;;;;21.52;19.48;;;23.20;99.90;;;;;;5093115;28;20545;-49
2023/08/19 05:06:09;;;;;;;22.65;20.33;;;23.30;99.90;;;;;;5098761;28;20126;-49
2023/08/19 05:08:35;;;;;;;21.63;19.27;;;23.30;99.90;;;;;;5101542;28;20545;-49
2023/08/19 05:11:00;;;;;;;23.90;21.60;;;23.30;99.90;;;;;;5105943;28;20020;-48
2023/08/19 05:13:26;;;;;;;22.45;20.08;;;23.30;99.90;;;;;;5102652;28;20046;-49
2023/08/19 05:15:52;;;;;;;22.00;19.67;;;23.30;99.90;;;;;;5083061;28;20034;-48
2023/08/19 05:18:17;;;;;;;22.63;20.38;;;23.30;99.90;;;;;;5098293;28;20032;-49
2023/08/19 05:20:43;;;;;;;24.38;21.90;;;23.20;99.90;;;;;;5093307;28;20111;-49
2023/08/19 05:23:09;;;;;;;25.40;22.90;;;23.30;99.90;;;;;;5057407;28;20677;-48
2023/08/19 05:25:35;;;;;;;23.85;21.27;;;23.30;99.90;;;;;;5105910;28;20482;-49
2023/08/19 05:28:01;;;;;;;25.33;22.85;;;23.30;99.90;;;;;;5097412;28;20028;-49
2023/08/19 05:30:26;;;;;;;26.05;22.98;;;23.30;99.90;;;;;;5083344;28;20093;-49
2023/08/19 05:32:52;;;;;;;24.77;22.25;;;23.20;99.90;;;;;;5078180;28;20040;-49
2023/08/19 05:35:18;;;;;;;26.27;22.30;;;23.20;99.90;;;;;;5105203;28;20031;-49
2023/08/19 05:37:45;;;;;;;23.20;20.77;;;23.30;99.90;;;;;;5115111;28;20040;-49
2023/08/19 05:40:11;;;;;;;23.10;20.77;;;23.30;99.90;;;;;;5116990;28;20031;-49
2023/08/19 05:42:36;;;;;;;24.92;22.00;;;23.40;99.90;;;;;;5116674;28;20112;-49
2023/08/19 05:45:02;;;;;;;22.02;19.90;;;23.40;99.90;;;;;;5065297;28;20071;-48
2023/08/19 05:47:29;;;;;;;23.80;21.50;;;23.50;99.90;;;;;;5094506;28;20111;-49
2023/08/19 05:49:54;;;;;;;22.77;20.25;;;23.50;99.90;;;;;;5110511;28;20051;-49
2023/08/19 05:52:20;;;;;;;22.20;19.67;;;23.50;99.90;;;;;;5081168;28;20402;-49
2023/08/19 05:54:46;;;;;;;21.60;19.40;;;23.60;99.90;;;;;;5116905;28;20536;-49
2023/08/19 05:57:12;;;;;;;22.20;19.70;;;23.70;99.90;;;;;;5101621;28;20040;-49
2023/08/19 05:59:38;;;;;;;20.65;18.35;;;23.80;99.90;;;;;;5100609;28;20069;-48
2023/08/19 06:02:03;;;;;;;21.52;19.42;;;23.70;99.90;;;;;;5108235;28;20037;-48
2023/08/19 06:04:29;;;;;;;20.30;18.33;;;23.80;99.90;;;;;;5099001;28;20475;-50
2023/08/19 06:06:55;;;;;;;19.98;17.85;;;23.80;99.90;;;;;;5105609;28;20036;-49
2023/08/19 06:09:21;;;;;;;20.27;18.20;;;23.80;99.90;;;;;;5096039;28;20028;-49
2023/08/19 06:11:49;;;;;;;19.30;17.25;;;23.90;99.90;;;;;;5106003;28;20036;-49
2023/08/19 06:14:15;;;;;;;17.63;15.82;;;24.00;99.90;;;;;;5096316;28;20168;-49
2023/08/19 06:16:42;;;;;;;16.95;15.35;;;24.00;99.90;;;;;;5096242;28;20040;-49
2023/08/19 06:19:08;;;;;;;17.83;15.90;;;24.20;99.90;;;;;;5096021;28;20028;-48
2023/08/19 06:21:34;;;;;;;16.00;14.23;;;24.30;99.90;;;;;;5095920;28;20032;-49
2023/08/19 06:23:59;;;;;;;15.38;13.88;;;24.50;99.90;;;;;;5095974;28;20031;-48
2023/08/19 06:26:26;;;;;;;15.02;13.23;;;24.50;99.90;;;;;;5095710;28;20447;-49
2023/08/19 06:28:51;;;;;;;15.55;13.95;;;24.80;99.90;;;;;;5105740;28;20491;-50
2023/08/19 06:31:18;;;;;;;15.05;13.48;;;;;;;;;;5112803;28;20034;-47
2023/08/19 06:33:44;;;;;;;15.13;13.68;;;25.00;99.90;;;;;;5110842;28;20036;-49
2023/08/19 06:36:17;;;;;;;15.00;12.00;;;;;;;;;;5115767;28;20028;-49
2023/08/19 06:39:18;;;;;;;13.57;12.15;;;25.60;99.90;;;;;;5106609;28;20068;-49
2023/08/19 06:41:46;;;;;;;15.52;12.60;;;;;;;;;;5068922;28;20161;-49
2023/08/19 06:44:13;;;;;;;12.98;11.68;;;25.90;99.90;;;;;;5097985;28;20035;-49
2023/08/19 06:46:42;;;;;;;13.98;12.50;;;25.70;99.90;;;;;;5097105;28;20035;-49
2023/08/19 06:49:08;;;;;;;14.30;12.40;;;25.80;99.90;;;;;;5116159;28;20438;-49
2023/08/19 06:51:34;;;;;;;13.05;11.75;;;;;;;;;;5063174;28;20127;-48
2023/08/19 06:54:00;;;;;;;13.20;11.68;;;;;;;;;;5096829;28;20548;-49
2023/08/19 06:56:33;;;;;;;13.95;11.38;;;;;;;;;;5115437;28;20024;-49
2023/08/19 06:59:08;;;;;;;13.70;12.35;;;;;;;;;;5115709;28;20030;-49
2023/08/19 07:01:37;;;;;;;17.60;13.13;;;26.30;99.90;;;;;;5115978;28;20044;-48
2023/08/19 07:04:04;;;;;;;13.43;12.13;;;26.20;99.90;;;;;;5115490;28;20028;-49
2023/08/19 07:06:31;;;;;;;14.20;12.73;;;26.30;99.90;;;;;;5080143;28;20032;-49
2023/08/19 07:09:00;;;;;;;13.90;12.27;;;;;;;;;;5115680;28;20023;-49
2023/08/19 07:11:27;;;;;;;13.45;12.00;;;26.30;99.90;;;;;;5096529;28;20062;-49
2023/08/19 07:13:53;;;;;;;13.15;11.85;;;26.20;99.90;;;;;;5077150;28;20047;-49
2023/08/19 07:16:22;;;;;;;14.82;11.77;;;26.20;99.90;;;;;;5108635;28;20024;-48
2023/08/19 07:18:52;;;;;;;12.30;11.10;;;26.20;99.90;;;;;;5103361;28;20020;-49
2023/08/19 07:21:20;;;;;;;13.80;12.38;;;26.30;99.90;;;;;;5104354;28;20447;-49
2023/08/19 07:23:48;;;;;;;12.38;11.07;;;26.30;99.90;;;;;;5105482;28;20073;-49
2023/08/19 07:26:15;;;;;;;11.80;10.70;;;26.20;99.90;;;;;;5104080;28;20026;-49
2023/08/19 07:28:41;;;;;;;13.18;11.43;;;26.20;99.90;;;;;;5104319;28;20015;-49
2023/08/19 07:31:10;;;;;;;12.73;11.40;;;26.20;99.90;;;;;;5100539;28;20122;-48
2023/08/19 07:33:36;;;;;;;13.05;11.35;;;26.10;99.90;;;;;;5103630;28;20032;-49
2023/08/19 07:36:02;;;;;;;14.30;12.32;;;26.00;99.90;;;;;;5104085;28;20034;-48
2023/08/19 07:38:29;;;;;;;14.63;11.57;;;26.00;99.90;;;;;;5114195;28;20139;-49
2023/08/19 07:40:54;;;;;;;14.57;12.45;;;26.00;99.90;;;;;;5095779;28;20040;-48
2023/08/19 07:43:20;;;;;;;16.60;11.95;;;26.00;99.90;;;;;;5096005;28;20028;-49
2023/08/19 07:45:46;;;;;;;12.43;10.55;;;26.10;99.90;;;;;;5114594;28;20054;-49
2023/08/19 07:48:12;;;;;;;12.65;11.35;;;26.10;99.90;;;;;;5114453;28;20432;-49
2023/08/19 07:50:38;;;;;;;13.55;11.40;;;26.20;99.90;;;;;;5096037;28;20114;-49
2023/08/19 07:53:03;;;;;;;15.05;11.90;;;26.40;99.90;;;;;;5114873;28;20402;-49
2023/08/19 07:55:29;;;;;;;14.50;11.27;;;26.60;99.90;;;;;;5114522;28;20023;-49
2023/08/19 07:57:55;;;;;;;13.63;11.32;;;;;;;;;;5095491;28;20080;-49
2023/08/19 08:00:21;;;;;;;12.25;10.95;;;27.10;99.90;;;;;;5108784;28;20028;-49
2023/08/19 08:02:47;;;;;;;12.55;10.70;;;;;;;;;;5105099;28;20370;-49
2023/08/19 08:05:13;;;;;;;13.77;11.02;;;27.80;99.90;;;;;;5108840;28;20092;-49
2023/08/19 08:07:39;;;;;;;12.93;11.50;;;28.00;99.90;;;;;;5075398;28;20066;-49
2023/08/19 08:10:05;;;;;;;16.52;12.20;;;;;;;;;;5112654;28;20445;-49
2023/08/19 08:12:32;;;;;;;15.85;12.20;;;;;;;;;;5114612;28;20028;-48
2023/08/19 08:14:58;;;;;;;14.48;12.25;;;;;;;;;;5114351;28;20024;-48
2023/08/19 08:17:24;;;;;;;13.50;12.13;;;29.10;99.90;;;;;;5109585;28;20039;-49
2023/08/19 08:19:50;;;;;;;12.73;11.18;;;29.10;99.90;;;;;;5104891;27;20101;-49
2023/08/19 08:22:16;;;;;;;12.23;11.10;;;29.40;99.90;;;;;;5112096;27;20238;-48
2023/08/19 08:24:42;;;;;;;13.05;11.23;;;29.50;99.90;;;;;;5113058;27;20116;-49
2023/08/19 08:27:08;;;;;;;12.55;11.10;;;29.50;99.90;;;;;;5122325;27;20097;-49
2023/08/19 08:29:34;;;;;;;13.48;12.18;;;29.50;99.90;;;;;;5108410;27;20104;-49
2023/08/19 08:32:00;;;;;;;17.10;15.10;;;;;;;;;;5116346;27;20450;-49
2023/08/19 08:34:26;;;;;;;14.55;11.57;;;30.20;99.90;;;;;;5115380;27;20471;-48
2023/08/19 08:36:52;;;;;;;13.52;11.98;;;30.20;99.90;;;;;;5110367;28;20047;-49
2023/08/19 08:39:17;;;;;;;14.80;13.10;;;30.60;99.90;;;;;;5111633;27;20028;-48
2023/08/19 08:41:44;;;;;;;15.73;14.15;;;;;;;;;;5114534;27;20032;-48
2023/08/19 08:44:10;;;;;;;14.55;13.15;;;30.90;99.90;;;;;;5111405;27;20087;-49
2023/08/19 08:46:37;;;;;;;15.82;12.38;;;30.80;99.90;;;;;;5111668;27;20474;-48
2023/08/19 08:49:04;;;;;;;14.80;13.32;;;;;;;;;;5111055;28;20039;-49
2023/08/19 08:51:30;;;;;;;14.07;12.65;;;;;;;;;;5117705;27;20951;-49
2023/08/19 08:53:56;;;;;;;14.77;13.35;;;30.50;99.90;;;;;;5110054;27;20063;-50
2023/08/19 08:56:23;;;;;;;13.52;12.07;;;31.10;99.90;;;;;;5100208;28;20082;-49
2023/08/19 08:58:49;;;;;;;15.48;13.82;;;;;;;;;;5109871;28;20039;-49
2023/08/19 09:01:17;;;;;;;14.25;12.82;;;;;;;;;;5111893;28;20064;-49
2023/08/19 09:03:44;;;;;;;14.55;13.20;;;32.00;99.90;;;;;;5115471;28;20020;-49
2023/08/19 09:06:15;;;;;;;16.25;13.90;;;32.10;99.90;;;;;;5120616;28;20023;-50
2023/08/19 09:09:02;;;;;;;15.35;13.82;;;32.30;99.90;;;;;;5113609;28;20039;-49
2023/08/19 09:11:29;;;;;;;15.13;12.55;;;32.00;99.90;;;;;;5083903;28;20032;-49
2023/08/19 09:14:18;;;;;;;14.57;13.07;;;;;;;;;;5089833;28;20084;-48
2023/08/19 09:16:44;;;;;;;15.95;13.43;;;32.40;99.90;;;;;;5105689;28;20040;-49
2023/08/19 09:19:10;;;;;;;18.45;14.20;;;;;;;;;;5115329;28;20035;-49
2023/08/19 09:21:37;;;;;;;17.15;15.50;;;;;;;;;;5111315;28;20379;-49
2023/08/19 09:24:03;;;;;;;17.67;15.88;;;;;;;;;;5111233;28;20031;-49
2023/08/19 09:26:29;;;;;;;17.23;15.18;;;32.70;99.90;;;;;;5111517;28;20020;-49
2023/08/19 09:28:58;;;;;;;17.38;15.43;;;32.90;99.90;;;;;;5117420;28;20045;-49
2023/08/19 09:31:24;;;;;;;20.73;15.77;;;33.10;99.90;;;;;;5112789;28;20024;-49
2023/08/19 09:33:54;;;;;;;18.70;16.90;;;33.30;99.90;;;;;;5106461;28;20024;-49
2023/08/19 09:36:24;;;;;;;19.02;17.05;;;33.40;99.90;;;;;;5078361;28;20097;-50
2023/08/19 09:38:56;;;;;;;18.48;16.67;;;33.50;99.90;;;;;;5111505;28;20051;-50
2023/08/19 09:41:30;;;;;;;18.95;16.50;;;33.70;99.90;;;;;;5109365;28;20026;-50
2023/08/19 09:43:59;;;;;;;18.20;16.55;;;33.90;99.90;;;;;;5110520;28;20057;-50
2023/08/19 09:46:32;;;;;;;19.98;17.98;;;34.00;99.90;;;;;;5092508;28;20069;-49
2023/08/19 09:48:58;;;;;;;19.23;17.23;;;33.80;99.90;;;;;;5090053;28;20044;-50
2023/08/19 09:51:28;;;;;;;18.88;17.02;;;33.50;99.90;;;;;;5092206;28;20035;-49
2023/08/19 09:53:57;;;;;;;18.75;16.95;;;33.60;99.90;;;;;;5084741;28;20043;-50
2023/08/19 09:56:25;;;;;;;19.35;17.45;;;33.70;99.90;;;;;;5092498;28;20386;-50
2023/08/19 09:58:53;;;;;;;19.60;17.50;;;33.70;99.90;;;;;;5072934;28;20059;-49
2023/08/19 10:01:22;;;;;;;21.45;19.38;;;33.70;99.90;;;;;;5086106;28;20109;-50
2023/08/19 10:03:49;;;;;;;18.13;16.25;;;33.90;99.90;;;;;;5088067;28;20036;-50
2023/08/19 10:06:20;;;;;;;18.55;16.58;;;34.30;99.90;;;;;;5087748;28;20067;-50
2023/08/19 10:08:50;;;;;;;18.92;17.02;;;34.30;99.90;;;;;;5092088;28;20121;-50
2023/08/19 10:11:17;;;;;;;18.02;16.02;;;33.40;99.90;;;;;;5091364;28;20043;-49
2023/08/19 10:13:46;;;;;;;20.02;17.85;;;33.80;99.90;;;;;;5094138;28;20131;-50
2023/08/19 10:16:15;;;;;;;19.63;17.63;;;34.30;99.90;;;;;;5092492;28;20038;-50
2023/08/19 10:18:45;;;;;;;18.88;16.55;;;34.70;99.90;;;;;;5093473;28;20047;-49
2023/08/19 10:21:14;;;;;;;18.58;16.73;;;34.90;99.90;;;;;;5059477;28;20396;-50
2023/08/19 10:23:43;;;;;;;21.80;18.13;;;34.50;99.90;;;;;;5094324;28;20115;-50
2023/08/19 10:26:09;;;;;;;18.27;15.48;;;33.60;99.90;;;;;;5095625;28;20044;-50
2023/08/19 10:28:35;;;;;;;18.75;16.85;;;34.50;99.90;;;;;;5094985;28;20114;-50
2023/08/19 10:31:13;;;;;;;19.13;17.23;;;34.30;99.90;;;;;;5042220;28;20032;-50
2023/08/19 10:33:40;;;;;;;19.83;17.30;;;34.40;99.90;;;;;;5090834;28;20024;-53
2023/08/19 10:36:07;;;;;;;17.23;15.68;;;34.90;99.90;;;;;;5089320;28;20113;-52
2023/08/19 10:38:45;;;;;;;18.20;16.48;;;35.30;99.90;;;;;;5095429;28;20558;-51
2023/08/19 10:41:20;;;;;;;16.35;14.52;;;;;;;;;;5093190;28;20068;-51
2023/08/19 10:44:00;;;;;;;16.90;14.88;;;35.50;99.90;;;;;;5089689;28;20023;-51
2023/08/19 10:46:47;;;;;;;16.50;15.00;;;35.80;99.90;;;;;;5088305;28;20064;-51
2023/08/19 10:49:13;;;;;;;17.55;15.75;;;;;;;;;;5092331;28;20032;-50
2023/08/19 10:51:48;;;;;;;18.48;16.60;;;;;;;;;;5094798;28;20458;-52
2023/08/19 10:54:15;;;;;;;16.95;15.10;;;;;;;;;;5093211;28;20040;-51
2023/08/19 10:56:52;;;;;;;14.13;12.90;;;;;;;;;;5096748;28;20079;-51
2023/08/19 10:59:20;;;;;;;17.52;13.52;;;;;;;;;;5089471;28;20031;-51
2023/08/19 11:01:46;;;;;;;14.43;12.93;;;;;;;;;;5092345;28;20373;-51
2023/08/19 11:04:12;;;;;;;15.38;13.82;;;36.50;99.90;;;;;;5090058;28;20071;-52
2023/08/19 11:06:39;;;;;;;16.00;14.25;;;36.80;99.90;;;;;;5093194;28;20035;-52
2023/08/19 11:09:05;;;;;;;15.70;14.30;;;36.30;99.90;;;;;;5095222;28;20067;-51
2023/08/19 11:11:32;;;;;;;15.45;13.75;;;;;;;;;;5097739;28;20066;-51
2023/08/19 11:13:58;;;;;;;16.48;13.68;;;36.80;99.90;;;;;;5095034;28;20031;-51
2023/08/19 11:16:27;;;;;;;15.23;13.38;;;36.90;99.90;;;;;;5095872;28;20023;-51
2023/08/19 11:19:12;;;;;;;15.18;13.80;;;36.90;99.90;;;;;;5090281;28;20093;-54
2023/08/19 11:21:42;;;;;;;14.98;13.50;;;36.60;99.90;;;;;;5089080;28;20036;-51
2023/08/19 11:24:09;;;;;;;18.73;13.77;;;36.40;99.90;;;;;;5089277;28;20045;-51
2023/08/19 11:26:36;;;;;;;15.68;14.07;;;36.20;99.90;;;;;;5089155;28;20112;-53
2023/08/19 11:29:05;;;;;;;14.65;13.25;;;35.40;99.90;;;;;;5086742;28;20492;-51
2023/08/19 11:31:32;;;;;;;15.32;13.77;;;35.60;99.90;;;;;;5087105;28;20035;-52
2023/08/19 11:33:57;;;;;;;15.77;14.40;;;35.90;99.90;;;;;;5087964;28;20040;-51
2023/08/19 11:36:26;;;;;;;15.00;13.07;;;36.20;99.90;;;;;;5089073;28;20031;-52
2023/08/19 11:38:55;;;;;;;15.00;13.52;;;35.90;99.90;;;;;;5092749;28;20036;-52
2023/08/19 11:41:21;;;;;;;14.82;13.43;;;36.50;99.90;;;;;;5094216;28;20388;-52
2023/08/19 11:43:49;;;;;;;16.23;13.30;;;36.30;99.90;;;;;;5088461;28;20062;-52
2023/08/19 11:46:16;;;;;;;14.50;13.02;;;35.70;99.90;;;;;;5112065;27;20473;-52
2023/08/19 11:48:42;;;;;;;16.95;14.32;;;36.50;99.90;;;;;;5113452;27;20106;-52
2023/08/19 11:51:10;;;;;;;15.85;13.95;;;35.90;99.90;;;;;;5118892;27;20534;-51
2023/08/19 11:53:36;;;;;;;15.32;14.02;;;36.30;99.90;;;;;;5111423;27;20053;-51
2023/08/19 11:56:03;;;;;;;15.60;14.35;;;35.90;99.90;;;;;;5108233;27;20027;-52
2023/08/19 11:58:46;;;;;;;15.85;14.23;;;35.70;99.90;;;;;;5114542;27;20043;-51
2023/08/19 12:01:12;;;;;;;16.60;15.10;;;35.30;99.90;;;;;;5114858;27;20032;-52
2023/08/19 12:03:46;;;;;;;15.07;13.77;;;34.80;99.90;;;;;;5115539;27;20386;-51
2023/08/19 12:06:12;;;;;;;13.82;12.73;;;35.20;99.90;;;;;;5106476;27;20502;-52
2023/08/19 12:08:47;;;;;;;13.43;12.23;;;35.20;99.90;;;;;;5096316;28;20042;-51
2023/08/19 12:11:14;;;;;;;15.20;12.10;;;35.40;99.90;;;;;;5118051;27;20494;-51
2023/08/19 12:13:39;;;;;;;12.88;11.68;;;35.80;99.90;;;;;;5113935;27;20122;-52
2023/08/19 12:16:07;;;;;;;13.88;12.55;;;35.80;99.90;;;;;;5111318;27;20457;-52
2023/08/19 12:18:34;;;;;;;13.65;12.35;;;35.90;99.90;;;;;;5113623;27;20036;-51
2023/08/19 12:21:03;;;;;;;12.38;11.05;;;36.50;99.90;;;;;;5114853;27;20179;-51
2023/08/19 12:23:29;;;;;;;12.93;10.52;;;36.00;99.90;;;;;;5115033;27;20031;-52
2023/08/19 12:25:59;;;;;;;11.02;9.93;;;35.80;99.90;;;;;;5121232;27;20140;-51
2023/08/19 12:28:26;;;;;;;10.38;9.48;;;35.40;99.90;;;;;;5109974;28;21073;-51
2023/08/19 12:30:52;;;;;;;10.90;9.90;;;35.90;99.90;;;;;;5100213;28;20032;-51
2023/08/19 12:33:19;;;;;;;11.20;10.15;;;36.10;99.90;;;;;;5113431;27;20024;-52
2023/08/19 12:35:46;;;;;;;11.23;10.07;;;36.10;99.90;;;;;;5093977;28;20047;-51
2023/08/19 12:38:17;;;;;;;15.38;9.93;;;35.30;99.90;;;;;;5069462;28;20524;-52
2023/08/19 12:40:43;;;;;;;13.83;10.87;;;36.00;99.90;;;;;;5065520;28;20123;-51
2023/08/19 12:43:10;;;;;;;12.48;11.07;;;36.00;99.90;;;;;;5020099;28;20316;-51
2023/08/19 12:45:37;;;;;;;12.38;10.10;;;36.30;99.90;;;;;;5073050;28;20063;-52